Time;durP1;ratioP1;P1;durP2;ratioP2;P2;SDS_P1;SDS_P2;PMS_P1;PMS_P2;Temp;Humidity;BMP_temperature;BMP_pressure;BME280_temperature;BME280_humidity;BME280_pressure;Samples;Min_cycle;Max_cycle;Signal;HPM_P1;HPM_P2
2023/06/11 00:00:28;;;;;;;7.95;7.25;;;;;;;17.83;100.00;63843.50;5073548;28;20207;-77
2023/06/11 00:02:56;;;;;;;9.20;7.60;;;;;;;17.82;100.00;63842.47;5087812;28;20261;-76
2023/06/11 00:05:27;;;;;;;7.60;6.85;;;;;;;17.77;100.00;63839.84;5093885;28;20233;-77
2023/06/11 00:07:55;;;;;;;11.48;7.40;;;;;;;17.72;100.00;63830.00;5087162;28;20275;-77
2023/06/11 00:10:22;;;;;;;10.45;6.88;;;;;;;17.73;100.00;63835.66;5073074;28;20224;-78
2023/06/11 00:12:49;;;;;;;7.05;6.22;;;;;;;17.70;100.00;63830.50;5069069;28;20228;-78
2023/06/11 00:15:16;;;;;;;9.85;6.97;;;;;;;17.63;100.00;63820.13;5066666;28;20481;-78
2023/06/11 00:17:43;;;;;;;6.78;6.15;;;;;;;17.57;100.00;63814.38;5068929;28;20234;-78
2023/06/11 00:20:11;;;;;;;6.53;6.03;;;;;;;17.48;100.00;63810.16;5086243;28;20196;-77
2023/06/11 00:22:40;;;;;;;6.45;5.80;;;;;;;17.46;100.00;63805.50;5086852;28;20536;-78
2023/06/11 00:25:08;;;;;;;6.18;5.65;;;;;;;17.41;100.00;63797.72;5086189;28;20230;-77
2023/06/11 00:27:36;;;;;;;6.50;5.90;;;;;;;17.41;100.00;63802.34;5085441;28;20411;-79
2023/06/11 00:30:04;;;;;;;6.63;6.05;;;;;;;17.46;100.00;63802.94;5087694;28;20227;-77
2023/06/11 00:32:32;;;;;;;6.45;5.63;;;;;;;17.38;100.00;63796.66;5087062;28;20216;-76
2023/06/11 00:34:59;;;;;;;9.40;5.53;;;;;;;17.11;100.00;63763.91;5090395;28;20185;-76
2023/06/11 00:37:26;;;;;;;6.40;5.80;;;;;;;17.07;100.00;63764.88;5085720;28;20544;-78
2023/06/11 00:39:55;;;;;;;6.30;5.70;;;;;;;16.93;100.00;63750.84;5087073;28;20242;-79
2023/06/11 00:42:22;;;;;;;6.25;5.65;;;;;;;17.17;100.00;63777.88;5086740;28;20257;-77
2023/06/11 00:44:49;;;;;;;8.55;6.50;;;;;;;17.15;100.00;63775.78;5088230;28;20522;-77
2023/06/11 00:47:17;;;;;;;5.60;5.15;;;;;;;17.14;100.00;63772.16;5086899;28;20224;-77
2023/06/11 00:49:45;;;;;;;5.38;4.88;;;;;;;17.15;100.00;63776.28;5088302;28;20195;-78
2023/06/11 00:52:15;;;;;;;6.32;5.40;;;;;;;17.21;100.00;63777.41;5088412;28;20544;-77
2023/06/11 00:54:42;;;;;;;5.45;5.05;;;;;;;17.23;100.00;63779.50;5079604;28;20486;-76
2023/06/11 00:57:12;;;;;;;5.78;5.28;;;;;;;17.21;100.00;63774.31;5066072;28;20495;-78
2023/06/11 00:59:41;;;;;;;6.10;5.20;;;;;;;17.20;100.00;63778.94;5066936;28;20208;-77
2023/06/11 01:02:18;;;;;;;6.22;5.72;;;;;;;17.21;100.00;63782.56;5068707;28;20223;-77
2023/06/11 01:04:48;;;;;;;6.57;5.97;;;;;;;17.24;100.00;63788.25;5085338;28;20199;-77
2023/06/11 01:07:17;;;;;;;8.93;5.40;;;;;;;17.26;100.00;63784.66;5085898;28;20216;-76
2023/06/11 01:09:45;;;;;;;5.60;4.55;;;;;;;17.20;100.00;63775.84;5086368;28;20196;-78
2023/06/11 01:12:14;;;;;;;5.28;4.88;;;;;;;17.10;100.00;63765.44;5081829;28;20225;-78
2023/06/11 01:14:42;;;;;;;7.13;5.00;;;;;;;17.13;100.00;63763.41;5066059;28;20429;-77
2023/06/11 01:17:17;;;;;;;6.38;5.75;;;;;;;17.13;100.00;63769.09;5067579;28;20269;-77
2023/06/11 01:20:08;;;;;;;5.28;4.72;;;;;;;17.12;100.00;63770.09;5074270;28;20195;-78
2023/06/11 01:22:49;;;;;;;6.13;5.63;;;;;;;17.12;100.00;63767.50;5072414;28;20237;-78
2023/06/11 01:25:29;;;;;;;5.97;5.45;;;;;;;17.17;100.00;63775.81;5065768;28;20222;-79
2023/06/11 01:28:06;;;;;;;6.45;4.75;;;;;;;17.18;100.00;63776.34;5065376;28;20238;-79
2023/06/11 01:30:36;;;;;;;12.05;5.25;;;;;;;17.15;100.00;63775.78;5067704;28;20196;-76
2023/06/11 01:33:05;;;;;;;5.60;4.72;;;;;;;17.12;100.00;63767.50;5070352;28;20249;-76
2023/06/11 01:35:35;;;;;;;6.05;4.78;;;;;;;17.11;100.00;63761.31;5067390;28;20440;-79
2023/06/11 01:38:03;;;;;;;7.03;5.43;;;;;;;17.12;100.00;63767.50;5066318;28;20229;-78
2023/06/11 01:40:30;;;;;;;7.53;5.70;;;;;;;17.10;100.00;63770.59;5075985;28;20206;-77
2023/06/11 01:42:57;;;;;;;5.90;5.30;;;;;;;17.09;100.00;63766.97;5086225;28;20546;-77
2023/06/11 01:45:26;;;;;;;5.88;5.20;;;;;;;17.06;100.00;63758.69;5086294;28;20192;-77
2023/06/11 01:47:53;;;;;;;5.95;5.38;;;;;;;17.01;100.00;63756.59;5088581;28;20226;-78
2023/06/11 01:50:21;;;;;;;6.97;5.25;;;;;;;16.99;100.00;63753.97;5069108;28;20261;-78
2023/06/11 01:52:49;;;;;;;7.32;4.65;;;;;;;17.07;100.00;63762.84;5069343;28;20221;-77
2023/06/11 01:55:17;;;;;;;5.28;4.90;;;;;;;16.98;100.00;63753.47;5070791;28;20227;-79
2023/06/11 01:57:46;;;;;;;6.00;4.97;;;;;;;17.09;100.00;63766.97;5072912;28;20242;-76
2023/06/11 02:00:14;;;;;;;6.97;6.10;;;;;;;17.08;100.00;63760.78;5090107;28;20492;-77
2023/06/11 02:02:45;;;;;;;5.60;4.60;;;;;;;17.12;100.00;63765.47;5091835;28;20253;-77
2023/06/11 02:05:12;;;;;;;5.97;5.40;;;;;;;17.19;100.00;63774.78;5092370;28;20230;-78
2023/06/11 02:07:39;;;;;;;5.20;4.70;;;;;;;17.15;100.00;63776.28;5087333;28;20220;-77
2023/06/11 02:10:06;;;;;;;4.97;4.68;;;;;;;17.16;100.00;63777.34;5089883;28;20513;-77
2023/06/11 02:12:33;;;;;;;7.88;4.88;;;;;;;17.14;100.00;63774.75;5089559;28;20536;-78
2023/06/11 02:15:00;;;;;;;5.93;5.32;;;;;;;17.15;100.00;63776.28;5090997;28;20237;-77
2023/06/11 02:17:27;;;;;;;4.82;4.47;;;;;;;17.17;100.00;63772.72;5069480;28;20491;-77
2023/06/11 02:19:56;;;;;;;5.35;4.47;;;;;;;17.17;100.00;63773.25;5078668;28;20202;-78
2023/06/11 02:22:23;;;;;;;5.13;4.45;;;;;;;17.15;100.00;63773.72;5091249;28;20265;-78
2023/06/11 02:24:50;;;;;;;6.38;4.75;;;;;;;17.13;100.00;63771.66;5089063;28;20255;-77
2023/06/11 02:27:16;;;;;;;5.03;4.60;;;;;;;17.11;100.00;63769.06;5089659;28;20226;-77
2023/06/11 02:29:44;;;;;;;5.68;5.18;;;;;;;17.13;100.00;63771.66;5089746;28;20232;-76
2023/06/11 02:32:12;;;;;;;5.88;5.28;;;;;;;17.12;100.00;63767.50;5091393;28;20405;-77
2023/06/11 02:34:39;;;;;;;7.07;4.88;;;;;;;17.15;100.00;63773.72;5078816;28;20204;-78
2023/06/11 02:37:08;;;;;;;4.90;4.60;;;;;;;17.15;100.00;63768.06;5068187;28;20552;-78
2023/06/11 02:39:35;;;;;;;4.28;3.97;;;;;;;17.08;100.00;63763.34;5071136;28;20197;-77
2023/06/11 02:42:02;;;;;;;5.20;4.70;;;;;;;17.04;100.00;63761.75;5070777;28;20304;-78
2023/06/11 02:44:29;;;;;;;4.53;4.20;;;;;;;16.95;100.00;63752.91;5087069;28;20192;-79
2023/06/11 02:46:56;;;;;;;5.40;5.00;;;;;;;17.00;100.00;63755.53;5090962;28;20220;-77
2023/06/11 02:49:23;;;;;;;6.32;4.75;;;;;;;16.95;100.00;63745.19;5092251;28;20203;-79
2023/06/11 02:51:50;;;;;;;4.85;4.35;;;;;;;16.95;100.00;63752.38;5073037;28;20242;-77
2023/06/11 02:54:19;;;;;;;5.18;4.68;;;;;;;16.89;100.00;63746.16;5088079;28;20234;-78
2023/06/11 02:56:46;;;;;;;5.68;4.28;;;;;;;16.86;100.00;63746.13;5090109;28;20212;-77
2023/06/11 02:59:13;;;;;;;5.57;5.07;;;;;;;16.83;100.00;63739.91;5090506;28;20200;-78
2023/06/11 03:01:40;;;;;;;4.95;4.65;;;;;;;16.76;100.00;63730.56;5084492;28;20267;-77
2023/06/11 03:04:07;;;;;;;5.03;4.63;;;;;;;16.79;100.00;63731.13;5088754;28;20192;-77
2023/06/11 03:06:35;;;;;;;6.10;5.47;;;;;;;16.77;100.00;63736.25;5089912;28;20226;-78
2023/06/11 03:09:02;;;;;;;5.03;4.63;;;;;;;16.73;100.00;63727.44;5087122;28;20195;-78
2023/06/11 03:11:30;;;;;;;6.00;5.00;;;;;;;16.75;100.00;63734.69;5070176;28;20227;-77
2023/06/11 03:13:57;;;;;;;4.85;4.40;;;;;;;16.68;100.00;63721.72;5071278;28;20193;-77
2023/06/11 03:16:24;;;;;;;5.10;4.70;;;;;;;16.75;100.00;63729.00;5068859;28;20216;-77
2023/06/11 03:18:52;;;;;;;5.25;4.03;;;;;;;16.78;100.00;63732.13;5071824;28;20244;-78
2023/06/11 03:21:19;;;;;;;5.35;4.85;;;;;;;16.71;100.00;63727.94;5086877;28;20208;-79
2023/06/11 03:23:46;;;;;;;5.28;4.55;;;;;;;16.83;100.00;63739.91;5087747;28;20200;-77
2023/06/11 03:26:13;;;;;;;5.32;4.82;;;;;;;16.89;100.00;63746.69;5088509;28;20242;-78
2023/06/11 03:28:41;;;;;;;5.75;4.80;;;;;;;16.93;100.00;63747.72;5087328;28;20390;-77
2023/06/11 03:31:08;;;;;;;5.22;4.82;;;;;;;16.97;100.00;63755.00;5086208;28;20392;-77
2023/06/11 03:33:35;;;;;;;5.78;4.60;;;;;;;17.03;100.00;63758.66;5074421;28;20200;-77
2023/06/11 03:36:03;;;;;;;5.35;4.85;;;;;;;17.13;100.00;63769.09;5088819;28;20497;-79
2023/06/11 03:38:30;;;;;;;5.35;4.90;;;;;;;17.21;100.00;63779.44;5083386;28;20550;-79
2023/06/11 03:40:58;;;;;;;4.70;4.30;;;;;;;17.30;100.00;63789.34;5067322;28;20267;-78
2023/06/11 03:43:25;;;;;;;5.40;4.80;;;;;;;17.40;100.00;63801.81;5070905;28;20231;-76
2023/06/11 03:45:54;;;;;;;5.38;4.88;;;;;;;17.44;100.00;63795.16;5069546;28;20395;-80
2023/06/11 03:48:21;;;;;;;5.00;4.63;;;;;;;17.51;100.00;63810.19;5085909;28;20215;-78
2023/06/11 03:50:49;;;;;;;5.63;4.90;;;;;;;17.62;100.00;63822.16;5089250;28;20192;-78
2023/06/11 03:53:17;;;;;;;7.18;5.18;;;;;;;17.69;100.00;63829.44;5088272;28;20283;-78
2023/06/11 03:55:44;;;;;;;4.85;4.53;;;;;;;17.74;100.00;63831.56;5084926;28;20200;-79
2023/06/11 03:58:11;;;;;;;5.38;4.78;;;;;;;17.55;100.00;63809.72;5087427;28;20585;-78
2023/06/11 04:00:38;;;;;;;5.25;4.95;;;;;;;17.78;100.00;63838.84;5074645;28;20219;-78
2023/06/11 04:03:07;;;;;;;5.80;5.30;;;;;;;17.90;100.00;63855.94;5069518;28;20327;-77
2023/06/11 04:05:37;;;;;;;5.00;4.60;;;;;;;17.98;100.00;63864.81;5068246;28;20196;-78
2023/06/11 04:08:05;;;;;;;6.15;5.22;;;;;;;18.14;100.00;63876.31;5069269;28;20204;-77
2023/06/11 04:10:33;;;;;;;5.63;5.05;;;;;;;18.16;100.00;63878.41;5078198;28;20382;-79
2023/06/11 04:13:00;;;;;;;5.30;4.90;;;;;;;18.35;100.00;63897.69;5084711;28;20211;-79
2023/06/11 04:15:27;;;;;;;5.97;5.38;;;;;;;18.49;100.00;63914.34;5069429;28;20203;-78
2023/06/11 04:17:54;;;;;;;5.80;5.25;;;;;;;18.56;100.00;63919.59;5068900;28;20238;-77
2023/06/11 04:20:23;;;;;;;5.78;5.28;;;;;;;18.39;100.00;63899.81;5079118;28;20513;-77
2023/06/11 04:22:50;;;;;;;5.90;5.30;;;;;;;18.49;100.00;63907.13;5083746;28;20251;-80
2023/06/11 04:25:17;;;;;;;5.68;5.28;;;;;;;18.66;100.00;63934.66;5088012;28;20200;-78
2023/06/11 04:27:44;;;;;;;10.25;6.03;;;;;;;18.74;100.00;63940.41;5084716;28;20220;-77
2023/06/11 04:30:13;;;;;;;5.65;5.18;;;;;;;18.87;100.00;63951.91;5085670;28;20202;-76
2023/06/11 04:32:40;;;;;;;5.25;4.82;;;;;;;18.96;100.00;63961.28;5086071;28;20234;-77
2023/06/11 04:35:07;;;;;;;6.13;4.97;;;;;;;19.12;100.00;63977.44;5069521;28;20197;-77
2023/06/11 04:37:38;;;;;;;5.70;5.20;;;;;;;18.92;100.00;63957.13;5067211;28;20259;-77
2023/06/11 04:40:09;;;;;;;7.55;5.28;;;;;;;18.64;100.00;63930.00;5065628;28;20196;-77
2023/06/11 04:42:36;;;;;;;6.10;5.60;;;;;;;18.45;100.00;63907.63;5073830;28;20212;-77
2023/06/11 04:45:05;;;;;;;6.68;5.43;;;;;;;18.38;100.00;63898.75;5085650;28;20543;-77
2023/06/11 04:47:33;;;;;;;5.68;5.20;;;;;;;18.48;100.00;63910.72;5086640;28;20224;-79
2023/06/11 04:50:03;;;;;;;6.13;5.60;;;;;;;18.59;100.00;63927.34;5088081;28;20238;-77
2023/06/11 04:52:32;;;;;;;6.93;5.57;;;;;;;18.40;100.00;63900.88;5082831;28;20216;-77
2023/06/11 04:55:01;;;;;;;6.53;5.82;;;;;;;18.16;100.00;63875.84;5085876;28;20223;-78
2023/06/11 04:57:28;;;;;;;6.80;5.60;;;;;;;18.13;100.00;63872.19;5088132;28;20242;-77
2023/06/11 04:59:56;;;;;;;7.78;6.53;;;;;;;18.08;100.00;63866.97;5079783;28;20216;-77
2023/06/11 05:02:23;;;;;;;6.22;5.72;;;;;;;18.05;100.00;63861.78;5065290;28;20286;-76
2023/06/11 05:04:53;;;;;;;7.60;6.53;;;;;;;18.03;100.00;63867.44;5068991;28;20231;-78
2023/06/11 05:07:21;;;;;;;6.55;5.95;;;;;;;18.44;100.00;63904.50;5067019;28;20446;-77
2023/06/11 05:09:48;;;;;;;5.93;5.43;;;;;;;18.77;100.00;63935.78;5076144;28;20200;-78
2023/06/11 05:12:17;;;;;;;6.30;5.70;;;;;;;19.05;100.00;63968.06;5086627;28;20237;-78
2023/06/11 05:14:45;;;;;;;5.30;4.80;;;;;;;19.12;100.00;63977.44;5086939;28;20199;-76
2023/06/11 05:17:12;;;;;;;8.27;6.35;;;;;;;19.06;100.00;63971.19;5086235;28;20419;-78
2023/06/11 05:19:39;;;;;;;6.57;6.07;;;;;;;19.13;100.00;63979.00;5068373;28;20204;-77
2023/06/11 05:22:06;;;;;;;7.20;6.55;;;;;;;18.91;100.00;63955.56;5065945;28;20389;-77
2023/06/11 05:24:33;;;;;;;7.85;7.15;;;;;;;18.78;100.00;63936.84;5068011;28;20252;-77
2023/06/11 05:27:00;;;;;;;7.72;6.43;;;;;;;18.66;100.00;63924.84;5065549;28;20266;-75
2023/06/11 05:29:29;;;;;;;7.22;6.45;;;;;;;18.78;100.00;63942.00;5065082;28;20516;-78
2023/06/11 05:31:57;;;;;;;6.93;6.32;;;;;;;18.78;100.00;63942.53;5065971;28;20588;-76
2023/06/11 05:34:25;;;;;;;9.05;6.32;;;;;;;18.80;100.00;63942.03;5066645;28;20208;-79
2023/06/11 05:36:53;;;;;;;10.60;7.25;;;;;;;18.80;100.00;63944.06;5064399;28;20228;-79
2023/06/11 05:39:21;;;;;;;6.93;6.28;;;;;;;19.05;100.00;63967.56;5067241;28;20228;-76
2023/06/11 05:41:48;;;;;;;7.95;6.10;;;;;;;19.13;100.00;63975.91;5066902;28;20217;-77
2023/06/11 05:44:17;;;;;;;7.53;6.30;;;;;;;19.17;100.00;63983.16;5066801;28;20196;-77
2023/06/11 05:46:45;;;;;;;7.85;6.88;;;;;;;19.18;100.00;63981.13;5067044;28;20220;-78
2023/06/11 05:49:13;;;;;;;7.43;6.07;;;;;;;19.47;100.00;64009.31;5067233;28;20208;-77
2023/06/11 05:51:41;;;;;;;8.07;5.95;;;;;;;19.52;100.00;64019.69;5065560;28;20217;-77
2023/06/11 05:54:08;;;;;;;6.57;5.95;;;;;;;19.34;100.00;64000.94;5066992;28;20200;-77
2023/06/11 05:56:35;;;;;;;8.80;6.45;;;;;;;19.43;100.00;64007.72;5066463;28;20212;-76
2023/06/11 05:59:02;;;;;;;6.78;6.18;;;;;;;19.66;100.00;64028.09;5065851;28;20233;-77
2023/06/11 06:01:32;;;;;;;8.43;5.97;;;;;;;19.89;100.00;64057.78;5066914;28;20223;-78
2023/06/11 06:04:01;;;;;;;7.22;6.57;;;;;;;19.67;100.00;64032.25;5075274;28;20212;-77
2023/06/11 06:06:29;;;;;;;7.28;5.80;;;;;;;19.61;100.00;64028.56;5084969;28;20234;-76
2023/06/11 06:08:56;;;;;;;8.25;6.80;;;;;;;19.63;100.00;64030.66;5087468;28;20529;-77
2023/06/11 06:11:24;;;;;;;6.43;5.90;;;;;;;19.81;100.00;64051.50;5086130;28;20222;-77
2023/06/11 06:13:58;;;;;;;12.35;6.53;;;;;;;19.66;100.00;64030.66;5083027;28;20505;-77
2023/06/11 06:16:24;;;;;;;9.40;6.28;;;;;;;19.87;100.00;64055.16;5088796;28;20216;-78
2023/06/11 06:18:52;;;;;;;6.25;5.40;;;;;;;19.92;100.00;64063.47;5085456;28;20231;-77
2023/06/11 06:21:20;;;;;;;6.95;6.25;;;;;;;19.71;100.00;64036.41;5083500;28;20537;-78
2023/06/11 06:23:49;;;;;;;8.45;6.72;;;;;;;19.52;100.00;64019.16;5087794;28;20196;-77
2023/06/11 06:26:15;;;;;;;7.60;5.78;;;;;;;19.94;100.00;64060.41;5089742;28;20254;-77
2023/06/11 06:28:42;;;;;;;5.60;5.18;;;;;;;20.40;95.50;64107.91;5087439;28;20218;-78
2023/06/11 06:31:12;;;;;;;6.55;5.82;;;;;;;20.83;93.09;64147.59;5076316;28;20205;-79
2023/06/11 06:33:39;;;;;;;9.00;6.00;;;;;;;20.80;91.48;64149.66;5068072;28;20215;-78
2023/06/11 06:36:06;;;;;;;7.22;5.13;;;;;;;20.96;88.92;64166.38;5066812;28;20425;-78
2023/06/11 06:38:36;;;;;;;6.30;5.70;;;;;;;21.20;86.39;64196.63;5070139;28;20247;-79
2023/06/11 06:41:03;;;;;;;6.18;5.57;;;;;;;21.60;83.56;64235.28;5071135;28;20208;-78
2023/06/11 06:43:30;;;;;;;7.03;5.43;;;;;;;21.48;83.91;64220.69;5070174;28;20216;-77
2023/06/11 06:45:58;;;;;;;6.30;5.63;;;;;;;20.89;86.04;64158.53;5069692;28;20263;-77
2023/06/11 06:48:25;;;;;;;6.18;5.55;;;;;;;20.84;85.54;64158.47;5083009;28;20270;-77
2023/06/11 06:50:52;;;;;;;7.07;6.18;;;;;;;20.96;88.00;64165.84;5068707;28;20201;-77
2023/06/11 06:53:19;;;;;;;6.80;5.95;;;;;;;21.06;87.15;64179.41;5068638;28;20217;-76
2023/06/11 06:55:49;;;;;;;6.20;5.65;;;;;;;21.06;86.29;64173.69;5070547;28;20192;-77
2023/06/11 06:58:16;;;;;;;6.32;5.72;;;;;;;20.97;88.07;64172.56;5079109;28;20228;-78
2023/06/11 07:00:44;;;;;;;7.28;6.60;;;;;;;21.29;86.27;64202.91;5088777;28;20212;-76
2023/06/11 07:03:14;;;;;;;6.15;5.70;;;;;;;21.50;87.14;64225.34;5090268;28;20288;-77
2023/06/11 07:05:41;;;;;;;9.38;5.55;;;;;;;21.81;84.77;64259.84;5088683;28;20200;-76
2023/06/11 07:08:08;;;;;;;6.32;5.88;;;;;;;22.00;83.96;64269.34;5071760;28;20221;-79
2023/06/11 07:10:35;;;;;;;6.25;5.20;;;;;;;21.83;83.30;64261.94;5068626;28;20219;-79
2023/06/11 07:13:03;;;;;;;10.65;6.30;;;;;;;21.55;83.32;64227.47;5068985;28;20291;-78
2023/06/11 07:15:31;;;;;;;6.88;6.35;;;;;;;21.63;82.70;64241.00;5071148;28;20211;-77
2023/06/11 07:17:58;;;;;;;6.38;5.78;;;;;;;21.88;83.62;64264.56;5087586;28;20243;-78
2023/06/11 07:20:24;;;;;;;8.07;6.80;;;;;;;22.19;80.08;64294.38;5088286;28;20192;-77
2023/06/11 07:22:52;;;;;;;7.95;6.13;;;;;;;22.04;78.22;64278.69;5088727;28;20559;-78
2023/06/11 07:25:19;;;;;;;8.18;6.25;;;;;;;22.19;77.66;64296.44;5078193;28;20208;-76
2023/06/11 07:27:46;;;;;;;6.70;6.00;;;;;;;21.99;77.68;64278.13;5069839;28;20217;-77
2023/06/11 07:30:15;;;;;;;8.45;6.20;;;;;;;21.96;77.89;64269.81;5069431;28;20228;-79
2023/06/11 07:32:42;;;;;;;6.45;5.70;;;;;;;22.28;76.38;64306.38;5067855;28;20217;-80
2023/06/11 07:35:09;;;;;;;8.20;5.22;;;;;;;22.50;76.78;64328.84;5068266;28;20270;-78
2023/06/11 07:37:36;;;;;;;6.85;6.25;;;;;;;22.41;73.59;64324.63;5067094;28;20240;-78
2023/06/11 07:40:05;;;;;;;7.63;5.88;;;;;;;22.58;74.59;64334.63;5067624;28;20236;-78
2023/06/11 07:42:32;;;;;;;6.22;5.72;;;;;;;22.72;73.62;64354.47;5069187;28;20236;-77
2023/06/11 07:44:59;;;;;;;6.32;5.82;;;;;;;22.73;70.82;64352.91;5067373;28;20224;-78
2023/06/11 07:47:28;;;;;;;7.22;6.57;;;;;;;22.40;72.55;64321.50;5066495;28;20232;-78
2023/06/11 07:49:55;;;;;;;7.00;6.25;;;;;;;22.15;77.05;64289.66;5067181;28;20218;-77
2023/06/11 07:52:23;;;;;;;6.88;5.63;;;;;;;22.11;71.49;64286.00;5068754;28;20236;-78
2023/06/11 07:54:49;;;;;;;11.27;5.95;;;;;;;22.24;70.38;64297.00;5067730;28;20200;-77
2023/06/11 07:57:16;;;;;;;5.55;5.05;;;;;;;22.32;71.44;64310.56;5068626;28;20224;-77
2023/06/11 07:59:44;;;;;;;5.57;4.63;;;;;;;22.59;69.67;64338.28;5071590;28;20244;-79
2023/06/11 08:02:11;;;;;;;8.88;5.47;;;;;;;22.68;69.18;64347.69;5068709;28;20220;-77
2023/06/11 08:04:40;;;;;;;7.07;5.90;;;;;;;22.62;68.96;64344.50;5080950;28;20419;-77
2023/06/11 08:07:08;;;;;;;5.75;5.35;;;;;;;22.85;67.39;64368.56;5088229;28;20215;-79
2023/06/11 08:09:36;;;;;;;8.43;5.50;;;;;;;23.13;65.13;64394.22;5086725;28;20203;-78
2023/06/11 08:12:03;;;;;;;6.05;5.47;;;;;;;23.32;63.85;64411.50;5088695;28;20456;-79
2023/06/11 08:14:30;;;;;;;9.75;5.53;;;;;;;23.44;63.42;64424.06;5090711;28;20765;-78
2023/06/11 08:16:57;;;;;;;6.65;5.55;;;;;;;23.65;63.24;64448.63;5089020;28;20271;-76
2023/06/11 08:19:24;;;;;;;5.47;5.07;;;;;;;23.78;62.34;64462.75;5085814;28;20231;-78
2023/06/11 08:21:52;;;;;;;5.22;4.93;;;;;;;23.58;64.10;64441.31;5088601;28;20244;-77
2023/06/11 08:24:21;;;;;;;5.63;5.07;;;;;;;23.53;64.24;64436.59;5087303;28;20183;-79
2023/06/11 08:26:48;;;;;;;6.05;5.57;;;;;;;23.58;63.51;64446.50;5087049;28;20216;-77
2023/06/11 08:29:14;;;;;;;5.38;4.97;;;;;;;23.48;63.86;64428.78;5087101;28;20211;-78
2023/06/11 08:31:42;;;;;;;6.07;5.68;;;;;;;23.49;62.63;64435.00;5088526;28;20216;-78
2023/06/11 08:34:09;;;;;;;5.55;5.07;;;;;;;23.70;63.90;64451.25;5087430;28;20223;-78
2023/06/11 08:36:36;;;;;;;8.00;5.13;;;;;;;23.95;62.92;64480.03;5086078;28;20216;-77
2023/06/11 08:39:05;;;;;;;5.22;4.72;;;;;;;24.03;60.40;64485.81;5086457;28;20298;-78
2023/06/11 08:41:33;;;;;;;5.00;4.60;;;;;;;24.10;59.47;64495.75;5087845;28;20216;-78
2023/06/11 08:44:00;;;;;;;5.40;4.57;;;;;;;24.02;57.37;64484.25;5089311;28;20196;-77
2023/06/11 08:46:27;;;;;;;8.30;5.20;;;;;;;24.19;60.94;64510.38;5080906;28;20239;-78
2023/06/11 08:48:59;;;;;;;4.90;4.50;;;;;;;24.24;58.53;64509.88;5067016;28;20220;-78
2023/06/11 08:51:28;;;;;;;5.15;4.68;;;;;;;24.24;54.58;64507.28;5067746;28;20224;-77
2023/06/11 08:53:55;;;;;;;5.13;4.63;;;;;;;24.34;53.26;64520.88;5067196;28;20197;-77
2023/06/11 08:56:28;;;;;;;4.72;4.20;;;;;;;24.59;56.26;64546.53;5066145;28;20222;-80
2023/06/11 08:58:56;;;;;;;4.90;4.50;;;;;;;24.66;57.13;64556.97;5066355;28;20232;-77
2023/06/11 09:01:25;;;;;;;5.13;4.18;;;;;;;24.85;53.96;64571.69;5068358;28;20223;-79
2023/06/11 09:03:52;;;;;;;4.38;4.07;;;;;;;24.86;49.94;64577.94;5067203;28;20264;-76
2023/06/11 09:06:19;;;;;;;4.80;4.40;;;;;;;24.64;52.29;64551.75;5086676;28;21760;-79
2023/06/11 09:08:58;;;;;;;6.00;3.97;;;;;;;24.64;53.42;64554.38;5089529;28;20200;-79
2023/06/11 09:11:32;;;;;;;4.65;4.10;;;;;;;24.86;54.04;64575.34;5087879;28;20245;-77
2023/06/11 09:13:59;;;;;;;4.63;4.22;;;;;;;24.57;53.64;64544.44;5084114;28;20207;-77
2023/06/11 09:16:26;;;;;;;4.80;4.50;;;;;;;24.45;55.43;64529.25;5086737;28;20216;-77
2023/06/11 09:18:55;;;;;;;6.13;4.43;;;;;;;24.69;56.01;64557.53;5086782;28;20250;-78
2023/06/11 09:21:25;;;;;;;4.57;4.15;;;;;;;24.87;53.61;64578.47;5086194;28;20247;-78
2023/06/11 09:23:52;;;;;;;5.35;4.47;;;;;;;25.03;52.94;64595.22;5070769;28;20197;-77
2023/06/11 09:26:20;;;;;;;9.55;5.43;;;;;;;24.67;52.53;64552.28;5068658;28;20235;-79
2023/06/11 09:28:53;;;;;;;4.93;4.50;;;;;;;24.66;55.08;64554.38;5066566;28;20196;-79
2023/06/11 09:31:21;;;;;;;5.22;4.53;;;;;;;24.90;54.50;64579.53;5070398;28;20524;-78
2023/06/11 09:33:48;;;;;;;4.40;4.07;;;;;;;25.04;51.02;64596.78;5090708;28;20219;-77
2023/06/11 09:36:19;;;;;;;4.88;4.50;;;;;;;24.79;52.32;64570.09;5086458;28;20266;-78
2023/06/11 09:38:48;;;;;;;5.40;5.00;;;;;;;24.51;56.16;64541.28;5087564;28;20195;-78
2023/06/11 09:41:16;;;;;;;5.05;4.50;;;;;;;24.75;55.40;64563.28;5086299;28;20204;-77
2023/06/11 09:43:44;;;;;;;6.97;5.55;;;;;;;24.93;55.89;64579.53;5086217;28;20200;-79
2023/06/11 09:46:12;;;;;;;5.85;5.22;;;;;;;25.07;56.30;64597.31;5086253;28;20317;-79
2023/06/11 09:48:42;;;;;;;5.00;4.70;;;;;;;25.18;54.65;64608.31;5088954;28;20218;-77
2023/06/11 09:51:10;;;;;;;5.40;5.00;;;;;;;25.43;53.02;64631.94;5087754;28;20196;-77
2023/06/11 09:53:38;;;;;;;7.38;5.45;;;;;;;25.50;53.26;64636.13;5086847;28;20208;-78
2023/06/11 09:56:07;;;;;;;5.05;4.65;;;;;;;25.21;52.90;64608.34;5086137;28;20377;-77
2023/06/11 09:58:35;;;;;;;7.00;4.85;;;;;;;25.33;54.09;64623.53;5085282;28;20209;-78
2023/06/11 10:01:04;;;;;;;5.95;4.70;;;;;;;25.58;53.27;64649.72;5086450;28;20228;-78
2023/06/11 10:03:32;;;;;;;8.10;4.63;;;;;;;25.77;51.89;64672.78;5091263;28;20196;-78
2023/06/11 10:06:00;;;;;;;6.65;5.20;;;;;;;25.75;49.62;64667.53;5088656;28;20200;-78
2023/06/11 10:08:32;;;;;;;5.82;5.07;;;;;;;25.96;52.85;64689.56;5074034;28;20200;-77
2023/06/11 10:11:03;;;;;;;5.25;4.72;;;;;;;26.04;50.84;64697.97;5068443;28;20189;-78
2023/06/11 10:13:30;;;;;;;5.10;4.70;;;;;;;26.10;49.57;64704.78;5069464;28;20519;-79
2023/06/11 10:15:59;;;;;;;6.03;5.28;;;;;;;25.93;49.81;64692.16;5069648;28;20189;-81
2023/06/11 10:18:26;;;;;;;5.65;5.15;;;;;;;25.83;50.03;64678.56;5070843;28;20205;-80
2023/06/11 10:20:56;;;;;;;5.28;4.82;;;;;;;25.50;47.70;64641.88;5087441;28;20231;-79
2023/06/11 10:23:23;;;;;;;7.22;4.90;;;;;;;25.70;51.52;64659.69;5091200;28;20457;-78
2023/06/11 10:25:55;;;;;;;7.35;4.95;;;;;;;25.92;51.14;64682.78;5087220;28;20200;-79
2023/06/11 10:28:35;;;;;;;5.07;4.68;;;;;;;26.26;51.18;64717.91;5090053;28;20269;-79
2023/06/11 10:31:02;;;;;;;5.97;4.95;;;;;;;26.28;50.17;64722.59;5089021;28;20256;-78
2023/06/11 10:33:36;;;;;;;5.20;4.80;;;;;;;26.23;47.42;64717.91;5088415;28;20195;-77
2023/06/11 10:36:05;;;;;;;5.97;5.28;;;;;;;26.15;47.85;64706.88;5088957;28;20200;-76
2023/06/11 10:38:37;;;;;;;7.95;5.03;;;;;;;26.16;48.98;64708.47;5089864;28;20203;-77
2023/06/11 10:41:04;;;;;;;5.63;5.10;;;;;;;26.34;49.02;64728.88;5089268;28;20286;-77
2023/06/11 10:43:33;;;;;;;6.25;5.40;;;;;;;26.45;47.37;64738.34;5085143;28;20196;-79
2023/06/11 10:46:03;;;;;;;4.90;4.60;;;;;;;26.66;45.26;64762.44;5068387;28;20212;-78
2023/06/11 10:48:31;;;;;;;4.88;4.57;;;;;;;26.33;45.91;64727.84;5086894;28;20418;-78
2023/06/11 10:51:03;;;;;;;8.93;4.88;;;;;;;26.58;48.92;64751.97;5091639;28;20189;-77
2023/06/11 10:53:41;;;;;;;6.95;5.68;;;;;;;26.86;50.13;64783.97;5086639;28;20300;-77
2023/06/11 10:56:09;;;;;;;7.25;4.90;;;;;;;27.03;47.63;64801.28;5089433;28;20259;-78
2023/06/11 10:58:37;;;;;;;5.10;4.80;;;;;;;27.29;46.46;64828.56;5088922;28;20204;-78
2023/06/11 11:01:06;;;;;;;5.45;4.93;;;;;;;27.37;46.01;64839.06;5089044;28;20337;-79
2023/06/11 11:03:35;;;;;;;5.07;4.57;;;;;;;27.52;46.23;64852.72;5069187;28;20227;-78
2023/06/11 11:06:03;;;;;;;5.32;4.80;;;;;;;27.66;44.76;64866.88;5070314;28;20264;-77
2023/06/11 11:08:30;;;;;;;5.40;4.57;;;;;;;27.27;44.62;64826.44;5068520;28;20215;-77
2023/06/11 11:11:00;;;;;;;5.13;4.72;;;;;;;27.37;47.38;64841.69;5069511;28;20236;-78
2023/06/11 11:13:27;;;;;;;5.00;4.47;;;;;;;27.63;43.10;64864.25;5068945;28;20205;-77
2023/06/11 11:15:54;;;;;;;6.00;4.95;;;;;;;27.65;45.77;64868.97;5069586;28;20502;-80
2023/06/11 11:18:22;;;;;;;4.90;4.50;;;;;;;27.76;45.20;64877.91;5069699;28;20247;-79
2023/06/11 11:20:52;;;;;;;4.65;4.35;;;;;;;27.42;42.79;64839.59;5080895;28;20255;-79
2023/06/11 11:23:19;;;;;;;5.85;5.35;;;;;;;27.59;43.82;64859.53;5089909;28;20291;-78
2023/06/11 11:25:46;;;;;;;4.40;4.10;;;;;;;27.48;44.94;64845.88;5090717;28;20275;-77
2023/06/11 11:28:15;;;;;;;4.30;4.03;;;;;;;27.22;46.53;64824.34;5090272;28;20559;-78
2023/06/11 11:30:42;;;;;;;4.60;4.20;;;;;;;27.35;48.04;64834.88;5087467;28;20200;-78
2023/06/11 11:33:09;;;;;;;4.40;4.03;;;;;;;27.28;47.50;64824.91;5090966;28;20430;-79